sensor_id;sensor_type;location;lat;lon;timestamp;P1;durP1;ratioP1;P2;durP2;ratioP2
15151;SDS011;7676;50.900;6.234;2023-08-12T00:13:20;6.90;;;6.27;;
15151;SDS011;7676;50.900;6.234;2023-08-12T00:28:28;6.87;;;5.93;;
15151;SDS011;7676;50.900;6.234;2023-08-12T00:43:34;6.77;;;6.10;;
15151;SDS011;7676;50.900;6.234;2023-08-12T00:58:43;7.63;;;6.93;;
15151;SDS011;7676;50.900;6.234;2023-08-12T01:14:00;7.20;;;6.60;;
15151;SDS011;7676;50.900;6.234;2023-08-12T01:29:10;7.50;;;6.77;;
15151;SDS011;7676;50.900;6.234;2023-08-12T01:44:17;8.47;;;7.33;;
15151;SDS011;7676;50.900;6.234;2023-08-12T01:59:20;8.13;;;7.13;;
15151;SDS011;7676;50.900;6.234;2023-08-12T02:14:23;7.20;;;6.53;;
15151;SDS011;7676;50.900;6.234;2023-08-12T02:29:27;7.93;;;6.90;;
15151;SDS011;7676;50.900;6.234;2023-08-12T02:44:30;7.17;;;6.43;;
15151;SDS011;7676;50.900;6.234;2023-08-12T02:59:33;7.90;;;6.10;;
15151;SDS011;7676;50.900;6.234;2023-08-12T03:14:36;7.50;;;5.43;;
15151;SDS011;7676;50.900;6.234;2023-08-12T03:29:39;7.00;;;5.60;;
15151;SDS011;7676;50.900;6.234;2023-08-12T03:44:44;6.20;;;5.00;;
15151;SDS011;7676;50.900;6.234;2023-08-12T03:59:47;5.73;;;4.47;;
15151;SDS011;7676;50.900;6.234;2023-08-12T04:14:53;7.10;;;4.50;;
15151;SDS011;7676;50.900;6.234;2023-08-12T04:29:56;5.13;;;3.93;;
15151;SDS011;7676;50.900;6.234;2023-08-12T04:45:01;3.53;;;3.13;;
15151;SDS011;7676;50.900;6.234;2023-08-12T05:00:12;3.10;;;2.90;;
15151;SDS011;7676;50.900;6.234;2023-08-12T05:15:26;4.27;;;2.80;;
15151;SDS011;7676;50.900;6.234;2023-08-12T05:30:42;3.47;;;2.47;;
15151;SDS011;7676;50.900;6.234;2023-08-12T05:45:45;2.67;;;2.07;;
15151;SDS011;7676;50.900;6.234;2023-08-12T06:00:52;3.33;;;1.97;;
15151;SDS011;7676;50.900;6.234;2023-08-12T06:15:56;1.47;;;1.37;;
15151;SDS011;7676;50.900;6.234;2023-08-12T06:31:00;2.10;;;1.70;;
15151;SDS011;7676;50.900;6.234;2023-08-12T06:46:03;1.80;;;1.60;;
15151;SDS011;7676;50.900;6.234;2023-08-12T07:01:06;1.73;;;1.30;;
15151;SDS011;7676;50.900;6.234;2023-08-12T07:16:10;1.37;;;1.27;;
15151;SDS011;7676;50.900;6.234;2023-08-12T07:31:13;1.30;;;1.20;;
15151;SDS011;7676;50.900;6.234;2023-08-12T07:46:19;1.40;;;1.30;;
15151;SDS011;7676;50.900;6.234;2023-08-12T08:01:25;1.03;;;0.90;;
15151;SDS011;7676;50.900;6.234;2023-08-12T08:16:29;1.10;;;0.87;;
15151;SDS011;7676;50.900;6.234;2023-08-12T08:31:34;1.27;;;1.00;;
15151;SDS011;7676;50.900;6.234;2023-08-12T08:46:38;1.10;;;0.90;;
15151;SDS011;7676;50.900;6.234;2023-08-12T09:01:48;1.30;;;0.73;;
15151;SDS011;7676;50.900;6.234;2023-08-12T09:16:56;0.90;;;0.80;;
15151;SDS011;7676;50.900;6.234;2023-08-12T09:32:07;0.93;;;0.67;;
15151;SDS011;7676;50.900;6.234;2023-08-12T09:47:13;1.10;;;0.70;;
15151;SDS011;7676;50.900;6.234;2023-08-12T10:02:16;1.73;;;0.80;;
15151;SDS011;7676;50.900;6.234;2023-08-12T10:17:22;1.43;;;0.90;;
15151;SDS011;7676;50.900;6.234;2023-08-12T10:32:45;1.17;;;1.07;;
15151;SDS011;7676;50.900;6.234;2023-08-12T11:03:26;1.77;;;1.30;;
15151;SDS011;7676;50.900;6.234;2023-08-12T11:18:42;1.83;;;1.00;;
15151;SDS011;7676;50.900;6.234;2023-08-12T11:33:51;1.27;;;1.00;;
15151;SDS011;7676;50.900;6.234;2023-08-12T11:48:59;0.70;;;0.70;;
15151;SDS011;7676;50.900;6.234;2023-08-12T12:04:03;0.77;;;0.70;;
15151;SDS011;7676;50.900;6.234;2023-08-12T12:19:12;0.50;;;0.40;;
15151;SDS011;7676;50.900;6.234;2023-08-12T12:34:21;1.33;;;0.60;;
15151;SDS011;7676;50.900;6.234;2023-08-12T12:49:27;1.70;;;1.10;;
15151;SDS011;7676;50.900;6.234;2023-08-12T13:04:32;1.20;;;0.63;;
15151;SDS011;7676;50.900;6.234;2023-08-12T13:19:42;0.60;;;0.50;;
15151;SDS011;7676;50.900;6.234;2023-08-12T13:34:44;1.20;;;0.90;;
15151;SDS011;7676;50.900;6.234;2023-08-12T13:49:49;0.67;;;0.67;;
15151;SDS011;7676;50.900;6.234;2023-08-12T14:04:52;0.60;;;0.60;;
15151;SDS011;7676;50.900;6.234;2023-08-12T14:19:55;1.10;;;0.60;;
15151;SDS011;7676;50.900;6.234;2023-08-12T14:34:57;0.90;;;0.73;;
15151;SDS011;7676;50.900;6.234;2023-08-12T14:50:01;1.53;;;0.90;;
15151;SDS011;7676;50.900;6.234;2023-08-12T15:05:06;1.07;;;0.97;;
15151;SDS011;7676;50.900;6.234;2023-08-12T15:20:11;1.67;;;1.00;;
15151;SDS011;7676;50.900;6.234;2023-08-12T15:35:16;2.67;;;1.30;;
15151;SDS011;7676;50.900;6.234;2023-08-12T15:50:19;3.03;;;1.53;;
15151;SDS011;7676;50.900;6.234;2023-08-12T16:05:22;1.77;;;1.20;;
15151;SDS011;7676;50.900;6.234;2023-08-12T16:20:35;2.80;;;1.67;;
15151;SDS011;7676;50.900;6.234;2023-08-12T16:35:49;2.83;;;1.20;;
15151;SDS011;7676;50.900;6.234;2023-08-12T16:50:59;2.57;;;1.10;;
15151;SDS011;7676;50.900;6.234;2023-08-12T17:06:03;1.10;;;1.00;;
15151;SDS011;7676;50.900;6.234;2023-08-12T17:21:10;1.93;;;1.30;;
15151;SDS011;7676;50.900;6.234;2023-08-12T17:36:15;2.00;;;1.13;;
15151;SDS011;7676;50.900;6.234;2023-08-12T17:51:18;2.13;;;1.40;;
15151;SDS011;7676;50.900;6.234;2023-08-12T18:06:22;2.80;;;1.20;;
15151;SDS011;7676;50.900;6.234;2023-08-12T18:21:26;2.50;;;1.30;;
15151;SDS011;7676;50.900;6.234;2023-08-12T18:36:29;2.50;;;1.50;;
15151;SDS011;7676;50.900;6.234;2023-08-12T18:51:32;2.10;;;1.40;;
15151;SDS011;7676;50.900;6.234;2023-08-12T19:06:34;3.73;;;1.50;;
15151;SDS011;7676;50.900;6.234;2023-08-12T19:21:37;3.13;;;1.67;;
15151;SDS011;7676;50.900;6.234;2023-08-12T19:36:41;2.93;;;2.17;;
15151;SDS011;7676;50.900;6.234;2023-08-12T19:51:43;3.37;;;1.63;;
15151;SDS011;7676;50.900;6.234;2023-08-12T20:06:52;3.70;;;2.30;;
15151;SDS011;7676;50.900;6.234;2023-08-12T20:21:54;4.10;;;2.10;;
15151;SDS011;7676;50.900;6.234;2023-08-12T20:36:57;2.67;;;1.90;;
15151;SDS011;7676;50.900;6.234;2023-08-12T20:52:05;2.70;;;1.80;;
15151;SDS011;7676;50.900;6.234;2023-08-12T21:07:09;2.63;;;2.00;;
15151;SDS011;7676;50.900;6.234;2023-08-12T21:22:13;4.37;;;2.83;;
15151;SDS011;7676;50.900;6.234;2023-08-12T21:37:22;5.47;;;3.40;;
15151;SDS011;7676;50.900;6.234;2023-08-12T21:52:25;3.00;;;2.13;;
15151;SDS011;7676;50.900;6.234;2023-08-12T22:07:45;4.37;;;2.30;;
15151;SDS011;7676;50.900;6.234;2023-08-12T22:22:47;3.47;;;1.90;;
15151;SDS011;7676;50.900;6.234;2023-08-12T22:37:50;3.23;;;2.30;;
15151;SDS011;7676;50.900;6.234;2023-08-12T22:52:52;3.10;;;2.27;;
15151;SDS011;7676;50.900;6.234;2023-08-12T23:07:55;2.27;;;1.83;;
15151;SDS011;7676;50.900;6.234;2023-08-12T23:22:57;3.80;;;2.17;;
15151;SDS011;7676;50.900;6.234;2023-08-12T23:38:00;2.77;;;1.63;;
15151;SDS011;7676;50.900;6.234;2023-08-12T23:53:02;4.30;;;2.17;;
